Time;durP1;ratioP1;P1;durP2;ratioP2;P2;SDS_P1;SDS_P2;PMS_P1;PMS_P2;Temp;Humidity;BMP_temperature;BMP_pressure;BME280_temperature;BME280_humidity;BME280_pressure;Samples;Min_cycle;Max_cycle;Signal;HPM_P1;HPM_P2
2023/10/30 00:00:47;;;;;;;5.60;1.10;;;14.60;84.60;;;;;;5089051;28;20473;-81
2023/10/30 00:03:16;;;;;;;3.87;0.83;;;14.60;84.70;;;;;;5088658;28;20506;-81
2023/10/30 00:05:44;;;;;;;4.37;0.93;;;14.60;84.80;;;;;;5066638;28;20487;-81
2023/10/30 00:08:12;;;;;;;6.27;2.20;;;14.60;84.80;;;;;;5091385;28;20491;-80
2023/10/30 00:10:40;;;;;;;5.77;1.10;;;14.60;84.80;;;;;;5080552;28;20552;-82
2023/10/30 00:13:09;;;;;;;4.63;1.00;;;14.60;84.80;;;;;;5067058;28;21199;-81
2023/10/30 00:15:38;;;;;;;4.50;0.90;;;14.60;84.80;;;;;;5073858;28;20475;-83
2023/10/30 00:18:06;;;;;;;6.90;1.07;;;14.60;84.90;;;;;;5097420;28;20955;-82
2023/10/30 00:20:36;;;;;;;7.33;0.90;;;14.60;84.90;;;;;;5077772;28;20955;-83
2023/10/30 00:23:08;;;;;;;4.80;0.87;;;14.60;84.80;;;;;;5074439;28;20560;-80
2023/10/30 00:25:36;;;;;;;3.93;0.80;;;14.70;84.70;;;;;;5076816;28;20456;-83
2023/10/30 00:28:05;;;;;;;3.50;0.70;;;14.70;84.80;;;;;;5081992;28;20460;-84
2023/10/30 00:30:33;;;;;;;3.90;1.10;;;14.60;84.90;;;;;;5067256;28;21272;-83
2023/10/30 00:33:11;;;;;;;6.50;1.10;;;14.70;84.90;;;;;;5070672;28;20552;-85
2023/10/30 00:35:39;;;;;;;5.60;1.20;;;14.70;84.70;;;;;;5071502;28;20485;-84
2023/10/30 00:38:07;;;;;;;7.77;1.23;;;14.70;84.80;;;;;;5072104;28;20445;-80
2023/10/30 00:40:36;;;;;;;4.80;1.00;;;14.70;84.90;;;;;;5073460;28;20475;-81
2023/10/30 00:43:04;;;;;;;5.97;1.47;;;14.70;84.90;;;;;;5073443;28;20479;-82
2023/10/30 00:45:32;;;;;;;4.30;1.00;;;14.70;84.70;;;;;;5071607;28;20924;-82
2023/10/30 00:48:00;;;;;;;5.40;1.10;;;14.70;84.90;;;;;;5074733;28;20994;-83
2023/10/30 00:50:32;;;;;;;5.23;1.20;;;14.70;84.90;;;;;;5068619;28;20508;-80
2023/10/30 00:53:00;;;;;;;5.00;0.97;;;14.70;84.70;;;;;;5072005;28;20515;-82
2023/10/30 00:55:28;;;;;;;4.33;1.00;;;14.70;84.70;;;;;;5078933;28;21198;-84
2023/10/30 00:57:56;;;;;;;6.80;1.00;;;14.70;84.90;;;;;;5070979;28;20975;-82
2023/10/30 01:00:24;;;;;;;4.50;1.23;;;14.70;84.90;;;;;;5073224;28;20884;-83
2023/10/30 01:02:55;;;;;;;4.17;1.33;;;14.70;84.70;;;;;;5077569;28;20465;-82
2023/10/30 01:05:23;;;;;;;5.47;1.10;;;14.70;84.90;;;;;;5096209;28;20465;-82
2023/10/30 01:07:52;;;;;;;5.13;1.17;;;14.70;84.90;;;;;;5075588;28;20955;-82
2023/10/30 01:10:21;;;;;;;11.73;1.60;;;14.70;84.90;;;;;;5079929;28;20460;-82
2023/10/30 01:12:50;;;;;;;4.97;1.53;;;14.70;84.90;;;;;;5079571;28;20489;-84
2023/10/30 01:15:19;;;;;;;4.07;0.90;;;14.70;84.90;;;;;;5104110;28;20484;-85
2023/10/30 01:17:47;;;;;;;6.03;1.43;;;14.70;84.90;;;;;;5079372;28;20452;-84
2023/10/30 01:20:15;;;;;;;6.13;1.50;;;14.70;84.70;;;;;;5093121;28;20456;-83
2023/10/30 01:22:43;;;;;;;6.40;2.20;;;14.70;84.70;;;;;;5097800;28;20546;-84
2023/10/30 01:25:14;;;;;;;6.63;1.20;;;14.60;84.80;;;;;;5087052;28;20552;-84
2023/10/30 01:27:42;;;;;;;6.27;1.10;;;14.60;84.80;;;;;;5076289;28;20456;-83
2023/10/30 01:30:13;;;;;;;8.47;1.40;;;14.60;84.90;;;;;;5089334;28;20938;-84
2023/10/30 01:32:43;;;;;;;5.33;1.23;;;14.60;84.80;;;;;;5076377;28;20444;-82
2023/10/30 01:35:13;;;;;;;4.83;1.00;;;14.60;84.90;;;;;;5086089;28;20464;-81
2023/10/30 01:37:43;;;;;;;7.43;1.03;;;14.60;84.90;;;;;;5096467;28;20585;-84
2023/10/30 01:40:11;;;;;;;7.83;1.27;;;14.60;84.90;;;;;;5094985;28;20448;-81
2023/10/30 01:42:41;;;;;;;3.80;1.00;;;14.60;84.90;;;;;;5079384;28;20449;-85
2023/10/30 01:45:10;;;;;;;6.50;1.20;;;14.60;84.90;;;;;;5069225;28;20560;-83
2023/10/30 01:47:39;;;;;;;5.20;1.20;;;14.60;84.90;;;;;;5089612;28;20716;-81
2023/10/30 01:50:09;;;;;;;5.50;0.70;;;14.60;84.90;;;;;;5072734;28;20547;-83
2023/10/30 01:52:38;;;;;;;6.77;1.40;;;14.60;84.80;;;;;;5065968;28;21246;-85
2023/10/30 01:55:07;;;;;;;8.10;1.03;;;14.60;84.80;;;;;;5095024;28;20458;-82
2023/10/30 01:57:35;;;;;;;5.47;1.07;;;14.60;84.80;;;;;;5093558;28;20472;-84
2023/10/30 02:00:06;;;;;;;5.33;1.07;;;14.60;84.80;;;;;;5069674;28;20453;-82
2023/10/30 02:02:40;;;;;;;7.67;1.30;;;14.60;84.70;;;;;;5076604;28;20485;-81
2023/10/30 02:05:09;;;;;;;6.07;1.30;;;14.60;84.70;;;;;;5076400;28;21054;-82
2023/10/30 02:07:37;;;;;;;7.47;1.23;;;14.60;84.70;;;;;;5051952;28;20459;-82
2023/10/30 02:10:07;;;;;;;4.40;1.00;;;14.60;84.70;;;;;;5052655;28;20461;-80
2023/10/30 02:12:36;;;;;;;6.03;1.00;;;14.60;84.70;;;;;;5075681;28;20502;-82
2023/10/30 02:15:08;;;;;;;11.73;1.70;;;14.60;84.60;;;;;;5046061;28;20544;-82
2023/10/30 02:17:36;;;;;;;4.33;0.73;;;14.60;84.60;;;;;;5054562;28;20482;-82
2023/10/30 02:20:05;;;;;;;4.70;0.97;;;14.60;84.60;;;;;;5072001;28;20501;-79
2023/10/30 02:22:34;;;;;;;5.27;0.80;;;14.60;84.50;;;;;;5070366;28;20474;-82
2023/10/30 02:25:02;;;;;;;6.90;1.50;;;14.50;84.50;;;;;;5056919;28;20466;-79
2023/10/30 02:27:31;;;;;;;6.50;1.20;;;14.50;84.60;;;;;;5051047;28;20461;-79
2023/10/30 02:30:01;;;;;;;5.30;1.20;;;14.60;84.60;;;;;;5052483;28;20986;-83
2023/10/30 02:32:29;;;;;;;7.53;1.10;;;14.60;84.50;;;;;;5068502;28;20505;-82
2023/10/30 02:34:59;;;;;;;6.70;1.30;;;14.60;84.60;;;;;;5071849;28;20493;-82
2023/10/30 02:37:27;;;;;;;4.50;1.50;;;14.50;84.60;;;;;;5064986;28;20469;-82
2023/10/30 02:39:55;;;;;;;6.20;1.30;;;14.50;84.60;;;;;;5070001;28;20523;-83
2023/10/30 02:42:23;;;;;;;4.17;1.10;;;14.60;84.50;;;;;;5069407;28;20975;-80
2023/10/30 02:44:53;;;;;;;5.63;1.40;;;14.50;84.50;;;;;;5069065;28;20473;-82
2023/10/30 02:47:23;;;;;;;11.23;1.27;;;14.50;84.40;;;;;;5069209;28;20554;-82
2023/10/30 02:49:51;;;;;;;5.47;1.00;;;14.50;84.40;;;;;;5068849;28;20513;-83
2023/10/30 02:52:25;;;;;;;5.03;1.40;;;14.50;84.40;;;;;;5070836;28;20990;-87
2023/10/30 02:54:54;;;;;;;4.60;1.17;;;14.50;84.30;;;;;;5068014;28;20646;-81
2023/10/30 02:57:23;;;;;;;6.60;1.20;;;14.40;84.40;;;;;;5069719;28;20470;-82
2023/10/30 02:59:53;;;;;;;4.27;1.17;;;14.40;84.40;;;;;;5072485;28;20507;-83
2023/10/30 03:02:23;;;;;;;4.70;0.90;;;14.40;84.40;;;;;;5071378;28;20527;-85
2023/10/30 03:04:51;;;;;;;11.00;1.30;;;14.30;84.50;;;;;;5067475;28;20506;-84
2023/10/30 03:07:19;;;;;;;8.53;1.93;;;14.30;84.50;;;;;;5076752;28;20437;-83
2023/10/30 03:09:47;;;;;;;6.30;1.07;;;14.20;84.60;;;;;;5073605;28;20458;-84
2023/10/30 03:12:15;;;;;;;7.53;1.23;;;14.20;84.70;;;;;;5072127;28;20460;-84
2023/10/30 03:14:47;;;;;;;7.03;1.53;;;14.30;84.80;;;;;;5081627;28;20464;-83
2023/10/30 03:17:17;;;;;;;10.40;1.50;;;14.30;84.70;;;;;;5066918;28;20965;-83
2023/10/30 03:19:45;;;;;;;5.60;1.23;;;14.30;84.70;;;;;;5076575;28;20553;-81
2023/10/30 03:22:13;;;;;;;6.23;1.20;;;14.30;84.70;;;;;;5070233;28;20558;-82
2023/10/30 03:24:41;;;;;;;11.43;1.40;;;14.30;84.70;;;;;;5071784;28;20979;-81
2023/10/30 03:27:09;;;;;;;6.87;1.30;;;14.30;84.60;;;;;;5075321;28;20450;-83
2023/10/30 03:29:45;;;;;;;10.93;1.80;;;14.30;84.60;;;;;;5073098;28;20456;-81
2023/10/30 03:32:13;;;;;;;10.13;1.83;;;14.30;84.70;;;;;;5094232;28;20475;-82
2023/10/30 03:34:43;;;;;;;5.73;1.10;;;14.30;84.60;;;;;;5091723;28;20461;-81
2023/10/30 03:37:11;;;;;;;8.07;1.50;;;14.30;84.60;;;;;;5090641;28;20508;-82
2023/10/30 03:39:40;;;;;;;7.30;1.73;;;14.30;84.60;;;;;;5076589;28;20453;-81
2023/10/30 03:42:08;;;;;;;6.00;1.27;;;14.30;84.50;;;;;;5068405;28;20452;-84
2023/10/30 03:44:37;;;;;;;7.50;1.00;;;14.30;84.50;;;;;;5074943;28;20468;-82
2023/10/30 03:47:05;;;;;;;6.87;1.50;;;14.30;84.60;;;;;;5094876;28;20530;-82
2023/10/30 03:49:33;;;;;;;5.60;1.27;;;14.30;84.60;;;;;;5086612;28;21038;-83
2023/10/30 03:52:03;;;;;;;5.73;1.50;;;14.30;84.60;;;;;;5100131;28;20494;-82
2023/10/30 03:54:31;;;;;;;5.97;1.80;;;14.30;84.60;;;;;;5075297;28;20812;-83
2023/10/30 03:56:59;;;;;;;7.53;1.90;;;14.30;84.60;;;;;;5071606;28;20472;-83
2023/10/30 03:59:36;;;;;;;9.13;1.70;;;14.30;84.60;;;;;;5086853;28;20471;-82
2023/10/30 04:02:05;;;;;;;7.80;1.37;;;14.30;84.50;;;;;;5071643;28;20521;-81
2023/10/30 04:04:33;;;;;;;8.10;1.30;;;14.30;84.50;;;;;;5054202;28;20469;-81
2023/10/30 04:07:02;;;;;;;4.20;1.10;;;14.30;84.50;;;;;;5070570;28;20482;-80
2023/10/30 04:09:33;;;;;;;7.17;1.50;;;14.30;84.50;;;;;;5052164;28;20454;-81
2023/10/30 04:12:02;;;;;;;7.00;1.83;;;14.30;84.50;;;;;;5056272;28;20509;-82
2023/10/30 04:14:33;;;;;;;6.47;1.90;;;14.30;84.50;;;;;;5052086;28;20466;-81
2023/10/30 04:17:02;;;;;;;7.03;2.10;;;14.30;84.50;;;;;;5052454;28;21434;-82
2023/10/30 04:19:31;;;;;;;8.03;1.87;;;14.30;84.40;;;;;;5071115;28;21255;-82
2023/10/30 04:21:59;;;;;;;11.10;2.30;;;14.30;84.40;;;;;;5055573;28;20458;-82
2023/10/30 04:24:28;;;;;;;5.77;2.10;;;14.30;84.40;;;;;;5053523;28;20453;-80
2023/10/30 04:26:56;;;;;;;12.03;2.47;;;14.30;84.40;;;;;;5050420;28;20552;-81
2023/10/30 04:29:24;;;;;;;6.50;1.97;;;14.30;84.40;;;;;;5070046;28;20465;-81
2023/10/30 04:31:52;;;;;;;6.33;2.17;;;14.30;84.40;;;;;;5064233;28;20488;-82
2023/10/30 04:34:20;;;;;;;7.00;2.03;;;14.30;84.40;;;;;;5091966;28;20995;-83
2023/10/30 04:36:48;;;;;;;7.43;1.50;;;14.30;84.40;;;;;;5078320;28;20701;-85
2023/10/30 04:39:17;;;;;;;4.20;0.97;;;14.30;84.40;;;;;;5091020;28;21165;-83
2023/10/30 04:41:46;;;;;;;7.30;1.57;;;14.30;84.30;;;;;;5090601;28;20658;-84
2023/10/30 04:44:15;;;;;;;5.20;1.20;;;14.30;84.40;;;;;;5069392;28;20469;-82
2023/10/30 04:46:44;;;;;;;4.87;1.20;;;14.30;84.40;;;;;;5072464;28;21103;-81
2023/10/30 04:49:12;;;;;;;5.00;1.10;;;14.30;84.40;;;;;;5090866;28;20523;-82
2023/10/30 04:51:40;;;;;;;10.17;1.40;;;14.30;84.30;;;;;;5074156;28;20981;-84
2023/10/30 04:54:13;;;;;;;4.00;1.13;;;14.20;84.30;;;;;;5080216;28;20453;-82
2023/10/30 04:56:41;;;;;;;6.10;1.30;;;14.20;84.30;;;;;;5078302;28;20468;-81
2023/10/30 04:59:11;;;;;;;7.50;1.00;;;14.20;84.30;;;;;;5075244;28;20513;-84
2023/10/30 05:01:39;;;;;;;5.37;1.50;;;14.20;84.30;;;;;;5086810;28;20514;-82
2023/10/30 05:04:08;;;;;;;6.43;1.33;;;14.20;84.30;;;;;;5089652;28;20463;-84
2023/10/30 05:06:36;;;;;;;7.93;1.40;;;14.20;84.30;;;;;;5075567;28;20539;-83
2023/10/30 05:09:04;;;;;;;5.53;1.10;;;14.20;84.30;;;;;;5090015;28;20470;-82
2023/10/30 05:11:33;;;;;;;5.47;1.23;;;14.20;84.30;;;;;;5087320;28;20449;-82
2023/10/30 05:14:01;;;;;;;12.30;1.60;;;14.20;84.40;;;;;;5089589;28;20457;-82
2023/10/30 05:16:33;;;;;;;7.23;1.57;;;14.20;84.30;;;;;;5095147;28;20468;-85
2023/10/30 05:19:04;;;;;;;6.27;1.30;;;14.20;84.30;;;;;;5085583;28;20491;-82
2023/10/30 05:21:32;;;;;;;10.13;1.27;;;14.20;84.30;;;;;;5086920;28;20808;-83
2023/10/30 05:24:00;;;;;;;10.27;1.40;;;14.20;84.20;;;;;;5071456;28;20500;-82
2023/10/30 05:26:28;;;;;;;9.53;1.70;;;14.20;84.30;;;;;;5097602;28;20468;-81
2023/10/30 05:28:56;;;;;;;9.83;1.97;;;14.10;84.40;;;;;;5089919;28;20808;-83
2023/10/30 05:31:24;;;;;;;4.87;1.70;;;14.20;84.40;;;;;;5070412;28;20469;-83
2023/10/30 05:34:12;;;;;;;10.43;2.47;;;14.20;84.40;;;;;;5076225;28;20460;-82
2023/10/30 05:36:40;;;;;;;12.47;2.63;;;14.10;84.40;;;;;;5073862;28;20552;-81
2023/10/30 05:39:08;;;;;;;6.40;1.33;;;14.10;84.40;;;;;;5078348;28;20567;-80
2023/10/30 05:41:37;;;;;;;6.90;1.73;;;14.10;84.40;;;;;;5073500;28;20548;-81
2023/10/30 05:44:05;;;;;;;9.33;4.03;;;14.10;84.30;;;;;;5092685;28;20464;-84
2023/10/30 05:46:34;;;;;;;8.40;3.53;;;14.10;84.30;;;;;;5093099;28;20638;-84
2023/10/30 05:49:02;;;;;;;12.40;9.03;;;14.00;84.50;;;;;;5093457;28;21027;-82
2023/10/30 05:51:31;;;;;;;13.40;8.00;;;14.10;84.50;;;;;;5077909;28;21037;-82
2023/10/30 05:53:59;;;;;;;12.60;7.00;;;14.10;84.60;;;;;;5092732;28;20487;-80
2023/10/30 05:56:34;;;;;;;18.43;7.40;;;14.10;84.60;;;;;;5072612;28;20510;-82
2023/10/30 05:59:02;;;;;;;12.70;4.40;;;14.10;84.50;;;;;;5098638;28;20463;-81
2023/10/30 06:01:30;;;;;;;11.90;4.13;;;14.00;84.40;;;;;;5073690;28;20570;-81
2023/10/30 06:03:58;;;;;;;11.27;3.67;;;13.90;84.40;;;;;;5088470;28;20468;-79
2023/10/30 06:06:26;;;;;;;8.77;2.53;;;13.90;84.50;;;;;;5071692;28;20468;-81
2023/10/30 06:08:56;;;;;;;7.40;2.90;;;13.90;84.50;;;;;;5092177;28;20448;-83
2023/10/30 06:11:24;;;;;;;12.10;3.10;;;13.90;84.40;;;;;;5095276;28;20947;-83
2023/10/30 06:13:52;;;;;;;17.00;4.43;;;13.70;84.50;;;;;;5094136;28;20482;-81
2023/10/30 06:16:21;;;;;;;14.50;5.10;;;13.70;84.70;;;;;;5092079;28;20460;-82
2023/10/30 06:18:49;;;;;;;8.40;3.27;;;13.70;84.80;;;;;;5066508;28;20461;-82
2023/10/30 06:21:18;;;;;;;10.13;3.47;;;13.60;84.80;;;;;;5065910;28;21268;-85
2023/10/30 06:23:46;;;;;;;12.07;3.83;;;13.60;85.10;;;;;;5088866;28;20539;-82
2023/10/30 06:26:16;;;;;;;10.13;3.23;;;13.70;85.10;;;;;;5070579;28;20461;-83
2023/10/30 06:28:45;;;;;;;19.27;8.10;;;13.70;85.10;;;;;;5092506;28;21006;-80
2023/10/30 06:31:15;;;;;;;11.20;3.60;;;13.70;85.10;;;;;;5091344;28;20492;-81
2023/10/30 06:33:48;;;;;;;13.33;5.40;;;13.60;85.10;;;;;;5093385;28;20461;-81
2023/10/30 06:36:17;;;;;;;9.80;3.17;;;13.60;85.10;;;;;;5093472;28;20495;-82
2023/10/30 06:38:45;;;;;;;5.67;2.30;;;13.60;85.20;;;;;;5082299;28;20922;-82
2023/10/30 06:41:13;;;;;;;8.87;3.10;;;13.60;85.20;;;;;;5085501;28;20952;-79
2023/10/30 06:43:42;;;;;;;19.57;7.20;;;13.60;85.30;;;;;;5094741;28;20469;-83
2023/10/30 06:46:10;;;;;;;12.80;5.70;;;13.60;85.40;;;;;;5071449;28;20965;-82
2023/10/30 06:48:39;;;;;;;10.67;4.47;;;13.60;85.50;;;;;;5090029;28;20483;-82
2023/10/30 06:51:08;;;;;;;8.53;4.23;;;13.60;85.60;;;;;;5080026;28;20465;-80
2023/10/30 06:53:36;;;;;;;14.57;6.00;;;13.70;85.60;;;;;;5097372;28;20456;-81
2023/10/30 06:56:06;;;;;;;8.10;4.60;;;13.80;85.40;;;;;;5092390;28;20554;-83
2023/10/30 06:58:33;;;;;;;8.83;4.43;;;13.80;85.40;;;;;;5086467;28;20481;-83
2023/10/30 07:01:04;;;;;;;8.13;3.10;;;13.80;85.40;;;;;;5088095;28;20468;-81
2023/10/30 07:03:33;;;;;;;8.67;2.70;;;13.90;85.30;;;;;;5088090;28;20452;-81
2023/10/30 07:06:02;;;;;;;5.70;2.30;;;13.90;85.30;;;;;;5074278;28;20574;-82
2023/10/30 07:08:30;;;;;;;10.50;1.97;;;13.90;85.30;;;;;;5091125;28;20551;-81
2023/10/30 07:10:58;;;;;;;11.83;4.57;;;13.90;85.30;;;;;;5091748;28;20988;-83
2023/10/30 07:13:27;;;;;;;35.67;18.47;;;13.90;85.20;;;;;;5090397;28;20461;-82
2023/10/30 07:15:54;;;;;;;72.63;33.33;;;13.80;85.20;;;;;;5089494;28;20460;-81
2023/10/30 07:18:24;;;;;;;22.30;10.50;;;13.80;85.40;;;;;;5073623;28;20532;-82
2023/10/30 07:20:52;;;;;;;30.30;15.10;;;13.80;85.30;;;;;;5091158;28;20464;-82
2023/10/30 07:23:20;;;;;;;20.83;9.80;;;13.80;85.40;;;;;;5097608;28;20464;-80
2023/10/30 07:25:48;;;;;;;34.77;17.93;;;13.70;85.60;;;;;;5092213;28;20467;-80
2023/10/30 07:28:16;;;;;;;30.70;13.60;;;13.70;85.80;;;;;;5089000;28;20845;-80
2023/10/30 07:30:45;;;;;;;27.33;12.70;;;13.80;85.80;;;;;;5090057;28;20460;-82
2023/10/30 07:33:13;;;;;;;16.93;9.07;;;13.80;85.90;;;;;;5093100;28;20476;-80
2023/10/30 07:35:43;;;;;;;11.27;4.40;;;13.80;86.00;;;;;;5098825;28;21127;-80
2023/10/30 07:38:11;;;;;;;17.67;8.87;;;13.90;85.90;;;;;;5091482;28;20539;-81
2023/10/30 07:40:39;;;;;;;14.93;9.10;;;13.90;85.90;;;;;;5092171;28;20492;-83
2023/10/30 07:43:07;;;;;;;10.50;4.80;;;14.00;85.90;;;;;;5093994;28;21021;-81
2023/10/30 07:45:40;;;;;;;8.90;4.20;;;14.00;85.90;;;;;;5076697;28;20468;-83
2023/10/30 07:48:09;;;;;;;8.80;3.83;;;14.00;85.90;;;;;;5090384;28;20464;-81
2023/10/30 07:50:37;;;;;;;9.73;3.60;;;14.00;85.90;;;;;;5097020;28;20460;-79
2023/10/30 07:53:06;;;;;;;7.53;3.70;;;14.10;85.90;;;;;;5077128;28;21135;-83
2023/10/30 07:55:34;;;;;;;16.03;4.47;;;14.10;86.00;;;;;;5087239;28;20453;-81
2023/10/30 07:58:05;;;;;;;8.87;3.27;;;14.10;86.00;;;;;;5073624;28;20510;-79
2023/10/30 08:00:33;;;;;;;9.70;2.30;;;14.10;86.10;;;;;;5095752;28;22379;-78
2023/10/30 08:03:21;;;;;;;4.87;1.67;;;14.10;86.10;;;;;;5089436;28;20452;-79
2023/10/30 08:05:49;;;;;;;8.57;3.80;;;14.10;86.30;;;;;;5081575;28;20977;-79
2023/10/30 08:08:19;;;;;;;16.50;7.30;;;14.10;86.30;;;;;;5081446;28;20488;-79
2023/10/30 08:10:47;;;;;;;8.53;3.33;;;14.10;86.50;;;;;;5080631;28;20456;-79
2023/10/30 08:13:17;;;;;;;7.10;3.20;;;14.20;86.40;;;;;;5068144;28;20500;-81
2023/10/30 08:15:45;;;;;;;9.13;4.60;;;14.20;86.40;;;;;;5089353;28;20545;-81
2023/10/30 08:18:13;;;;;;;11.03;3.17;;;14.20;86.40;;;;;;5093285;28;20496;-83
2023/10/30 08:20:41;;;;;;;6.30;2.17;;;14.30;86.40;;;;;;5070792;28;20480;-81
2023/10/30 08:23:09;;;;;;;4.17;1.40;;;14.30;86.50;;;;;;5081862;28;20467;-79
2023/10/30 08:25:39;;;;;;;6.87;1.83;;;14.40;86.50;;;;;;5092523;28;20487;-84
2023/10/30 08:28:07;;;;;;;7.03;1.80;;;14.40;86.40;;;;;;5090071;28;21026;-80
2023/10/30 08:30:35;;;;;;;14.63;3.03;;;14.50;86.40;;;;;;5068173;28;21121;-80
2023/10/30 08:33:04;;;;;;;7.50;2.60;;;14.60;86.50;;;;;;5059679;28;20457;-82
2023/10/30 08:35:32;;;;;;;11.73;7.27;;;14.60;86.50;;;;;;5059333;28;20512;-80
2023/10/30 08:38:02;;;;;;;6.30;1.57;;;14.70;86.40;;;;;;5074758;28;20928;-81
2023/10/30 08:40:30;;;;;;;4.33;1.20;;;14.70;86.40;;;;;;5055110;28;20493;-81
2023/10/30 08:43:00;;;;;;;5.90;2.70;;;14.70;86.40;;;;;;5071819;28;21182;-83
2023/10/30 08:45:34;;;;;;;5.20;1.80;;;14.80;86.40;;;;;;5075988;28;20463;-79
2023/10/30 08:48:02;;;;;;;6.73;1.50;;;14.90;86.30;;;;;;5068248;28;20457;-81
2023/10/30 08:50:45;;;;;;;4.40;0.87;;;14.90;86.00;;;;;;5079187;28;20467;-81
2023/10/30 08:53:14;;;;;;;3.67;0.97;;;14.90;85.80;;;;;;5076015;28;20488;-83
2023/10/30 08:55:42;;;;;;;4.13;1.17;;;14.90;85.70;;;;;;5076112;28;20989;-81
2023/10/30 08:58:11;;;;;;;6.40;1.20;;;14.90;85.70;;;;;;5056656;28;21039;-83
2023/10/30 09:00:42;;;;;;;3.80;0.80;;;14.90;85.60;;;;;;5079013;28;20547;-82
2023/10/30 09:03:10;;;;;;;6.30;0.90;;;15.00;85.60;;;;;;5075623;28;21011;-81
2023/10/30 09:05:38;;;;;;;3.70;0.80;;;15.00;85.50;;;;;;5094870;28;20503;-79
2023/10/30 09:08:07;;;;;;;4.30;0.80;;;15.00;85.40;;;;;;5092493;28;20456;-83
2023/10/30 09:10:35;;;;;;;6.63;1.10;;;15.00;85.40;;;;;;5096148;28;20932;-82
2023/10/30 09:13:13;;;;;;;3.20;0.60;;;15.00;85.40;;;;;;5102863;28;21269;-81
2023/10/30 09:15:41;;;;;;;5.77;0.90;;;15.00;85.30;;;;;;5072568;28;20481;-79
2023/10/30 09:18:09;;;;;;;4.83;0.77;;;15.10;85.20;;;;;;5096418;28;20559;-82
2023/10/30 09:20:37;;;;;;;18.50;8.40;;;15.10;85.20;;;;;;5076596;28;20555;-77
2023/10/30 09:23:06;;;;;;;9.07;4.10;;;15.10;85.20;;;;;;5084046;28;20460;-81
2023/10/30 09:25:34;;;;;;;7.70;2.77;;;15.10;85.10;;;;;;5080614;28;20463;-81
2023/10/30 09:28:02;;;;;;;4.63;1.23;;;15.20;85.10;;;;;;5095888;28;20503;-84
2023/10/30 09:30:31;;;;;;;6.70;1.60;;;15.20;85.00;;;;;;5080477;28;21101;-81
2023/10/30 09:33:00;;;;;;;4.07;0.90;;;15.20;85.00;;;;;;5095708;28;20615;-81
2023/10/30 09:35:31;;;;;;;4.80;0.80;;;15.20;85.00;;;;;;5079182;28;20468;-81
2023/10/30 09:38:00;;;;;;;5.73;1.10;;;15.20;85.00;;;;;;5075182;28;20987;-82
2023/10/30 09:40:28;;;;;;;3.93;1.20;;;15.30;85.00;;;;;;5078583;28;20475;-82
2023/10/30 09:42:56;;;;;;;5.90;1.80;;;15.30;85.10;;;;;;5072627;28;20463;-80
2023/10/30 09:45:28;;;;;;;5.60;1.50;;;15.30;85.30;;;;;;5079763;28;20461;-82
2023/10/30 09:47:58;;;;;;;4.07;1.17;;;15.30;85.30;;;;;;5090025;28;20544;-84
2023/10/30 09:50:26;;;;;;;7.60;2.00;;;15.30;85.40;;;;;;5094150;28;20461;-81
2023/10/30 09:52:58;;;;;;;6.40;1.43;;;15.30;85.40;;;;;;5091619;28;20467;-83
2023/10/30 09:55:28;;;;;;;10.40;2.50;;;15.30;85.30;;;;;;5093034;28;20448;-80
2023/10/30 09:57:57;;;;;;;7.10;1.40;;;15.30;85.40;;;;;;5072193;28;20457;-81
2023/10/30 10:00:25;;;;;;;7.13;1.80;;;15.30;85.30;;;;;;5093756;28;20472;-80
2023/10/30 10:02:57;;;;;;;4.37;0.93;;;15.30;85.30;;;;;;5078192;28;20513;-84
2023/10/30 10:05:25;;;;;;;4.33;1.10;;;15.30;85.30;;;;;;5066246;28;20552;-82
2023/10/30 10:07:54;;;;;;;10.57;4.73;;;15.30;85.20;;;;;;5093430;28;20441;-81
2023/10/30 10:10:22;;;;;;;9.60;4.17;;;15.30;85.20;;;;;;5074261;28;20553;-80
2023/10/30 10:12:51;;;;;;;4.97;1.27;;;15.30;85.20;;;;;;5095169;28;20453;-83
2023/10/30 10:15:20;;;;;;;8.40;1.80;;;15.30;85.40;;;;;;5073426;28;20437;-82
2023/10/30 10:17:49;;;;;;;5.70;1.37;;;15.30;85.40;;;;;;5085693;28;20449;-82
2023/10/30 10:20:21;;;;;;;5.00;1.53;;;15.30;85.30;;;;;;5069132;28;20476;-82
2023/10/30 10:22:50;;;;;;;8.30;1.40;;;15.40;85.20;;;;;;5075021;28;21030;-81
2023/10/30 10:25:18;;;;;;;8.80;1.40;;;15.40;85.20;;;;;;5094339;28;20579;-81
2023/10/30 10:27:48;;;;;;;4.67;0.90;;;15.40;85.20;;;;;;5091714;28;20471;-83
2023/10/30 10:30:23;;;;;;;5.00;1.40;;;15.40;85.20;;;;;;5103280;28;20475;-80
2023/10/30 10:32:53;;;;;;;7.43;1.33;;;15.50;85.10;;;;;;5090271;28;20480;-79
2023/10/30 10:35:25;;;;;;;5.93;1.77;;;15.50;85.00;;;;;;5077706;28;21164;-80
2023/10/30 10:38:09;;;;;;;6.93;1.53;;;15.50;85.00;;;;;;5104374;28;20820;-81
2023/10/30 10:40:38;;;;;;;4.40;0.87;;;15.60;85.00;;;;;;5077718;28;20477;-80
2023/10/30 10:43:07;;;;;;;8.80;1.43;;;15.60;84.90;;;;;;5076919;28;20453;-82
2023/10/30 10:45:37;;;;;;;9.07;1.57;;;15.70;84.90;;;;;;5073011;28;20888;-82
2023/10/30 10:48:06;;;;;;;4.50;0.60;;;15.70;84.80;;;;;;5086504;28;20455;-80
2023/10/30 10:50:36;;;;;;;4.10;1.00;;;15.80;84.70;;;;;;5092534;28;20535;-83
2023/10/30 10:53:04;;;;;;;7.70;1.40;;;15.90;84.50;;;;;;5076449;28;20860;-82
2023/10/30 10:55:40;;;;;;;6.57;1.10;;;15.90;84.50;;;;;;5092931;28;20883;-80
2023/10/30 10:58:10;;;;;;;3.53;0.70;;;15.90;84.50;;;;;;5090666;28;20444;-80
2023/10/30 11:00:45;;;;;;;3.87;0.83;;;16.00;84.20;;;;;;5090572;28;20866;-81
2023/10/30 11:03:13;;;;;;;5.23;0.80;;;16.00;83.90;;;;;;5096128;28;20457;-80
2023/10/30 11:05:44;;;;;;;5.87;1.03;;;16.00;83.70;;;;;;5076090;28;20555;-81
2023/10/30 11:08:28;;;;;;;3.80;0.70;;;16.00;83.40;;;;;;5091588;28;20488;-81
2023/10/30 11:11:03;;;;;;;3.77;0.67;;;16.00;83.20;;;;;;5083131;28;20527;-81
2023/10/30 11:13:43;;;;;;;3.60;0.90;;;16.00;83.20;;;;;;5092497;28;20465;-82
2023/10/30 11:16:18;;;;;;;5.53;1.00;;;16.00;82.90;;;;;;5075197;28;20505;-81
2023/10/30 11:18:48;;;;;;;3.27;0.67;;;16.00;82.70;;;;;;5084444;28;20464;-82
2023/10/30 11:21:17;;;;;;;5.07;1.53;;;16.00;82.70;;;;;;5092989;28;20482;-84
2023/10/30 11:23:52;;;;;;;6.60;1.70;;;16.00;82.60;;;;;;5092954;28;20465;-80
2023/10/30 11:26:40;;;;;;;3.00;0.60;;;16.10;82.60;;;;;;5072972;28;20467;-80
2023/10/30 11:29:13;;;;;;;3.77;1.10;;;16.10;82.50;;;;;;5065059;28;20967;-81
2023/10/30 11:31:53;;;;;;;4.00;1.20;;;16.20;82.60;;;;;;5056592;28;20925;-80
2023/10/30 11:34:26;;;;;;;5.43;1.20;;;16.20;82.50;;;;;;5051455;28;20450;-79
2023/10/30 11:37:00;;;;;;;5.00;1.43;;;16.20;82.40;;;;;;5076542;28;20456;-80
2023/10/30 11:39:28;;;;;;;5.43;0.80;;;16.20;82.30;;;;;;5071686;28;20495;-81
2023/10/30 11:41:56;;;;;;;3.37;0.70;;;16.30;82.10;;;;;;5075864;28;20535;-81
2023/10/30 11:44:29;;;;;;;4.30;0.87;;;16.30;82.20;;;;;;5072396;28;20473;-81
2023/10/30 11:46:58;;;;;;;4.17;1.00;;;16.30;82.20;;;;;;5072462;28;20456;-82
2023/10/30 11:49:32;;;;;;;3.63;0.70;;;16.30;82.10;;;;;;5073532;28;20967;-81
2023/10/30 11:52:11;;;;;;;3.47;0.83;;;16.40;82.00;;;;;;5068210;28;20449;-82
2023/10/30 11:54:41;;;;;;;6.20;1.67;;;16.40;81.80;;;;;;5072561;28;20537;-81
2023/10/30 11:57:10;;;;;;;3.97;1.00;;;16.50;81.70;;;;;;5076183;28;20457;-79
2023/10/30 11:59:38;;;;;;;4.47;0.80;;;16.50;81.60;;;;;;5054207;28;21023;-80
2023/10/30 12:02:07;;;;;;;5.97;1.80;;;16.50;81.60;;;;;;5067807;28;20505;-78
2023/10/30 12:04:35;;;;;;;4.37;0.70;;;16.50;81.60;;;;;;5073450;28;20480;-82
2023/10/30 12:07:05;;;;;;;5.60;1.30;;;16.50;81.50;;;;;;5089759;28;20460;-80
2023/10/30 12:09:33;;;;;;;4.27;1.47;;;16.60;81.50;;;;;;5095744;28;20452;-79
2023/10/30 12:12:01;;;;;;;3.90;1.07;;;16.60;81.30;;;;;;5095869;28;20450;-80
2023/10/30 12:14:30;;;;;;;4.20;0.93;;;16.60;81.20;;;;;;5074149;28;20465;-81
2023/10/30 12:16:59;;;;;;;4.60;0.90;;;16.60;81.10;;;;;;5099116;28;20998;-80
2023/10/30 12:19:27;;;;;;;4.10;0.60;;;16.70;81.00;;;;;;5073545;28;20449;-82
2023/10/30 12:21:55;;;;;;;3.80;0.60;;;16.70;80.90;;;;;;5074765;28;20484;-80
2023/10/30 12:24:25;;;;;;;3.40;0.60;;;16.70;80.70;;;;;;5076452;28;20888;-81
2023/10/30 12:26:54;;;;;;;4.50;1.40;;;16.70;80.60;;;;;;5079403;28;21038;-80
2023/10/30 12:29:22;;;;;;;3.43;0.70;;;16.70;80.50;;;;;;5101389;28;20487;-82
2023/10/30 12:31:52;;;;;;;6.33;0.80;;;16.60;80.50;;;;;;5093433;28;20507;-80
2023/10/30 12:34:26;;;;;;;3.50;0.70;;;16.60;80.40;;;;;;5078949;28;20909;-82
2023/10/30 12:36:54;;;;;;;4.20;0.90;;;16.60;80.40;;;;;;5093748;28;20539;-82
2023/10/30 12:39:24;;;;;;;5.00;0.80;;;16.60;80.40;;;;;;5098206;28;20594;-82
2023/10/30 12:41:55;;;;;;;4.40;0.83;;;16.60;80.30;;;;;;5099145;28;20476;-83
2023/10/30 12:44:26;;;;;;;4.63;1.13;;;16.60;80.20;;;;;;5096445;28;20973;-81
2023/10/30 12:46:54;;;;;;;4.13;1.10;;;16.60;80.20;;;;;;5081747;28;20456;-82
2023/10/30 12:49:22;;;;;;;6.90;3.00;;;16.60;80.10;;;;;;5093845;28;20985;-80
2023/10/30 12:51:50;;;;;;;4.27;1.23;;;16.60;80.10;;;;;;5092675;28;20436;-81
2023/10/30 12:54:18;;;;;;;4.73;1.10;;;16.60;80.00;;;;;;5073315;28;20506;-80
2023/10/30 12:56:46;;;;;;;4.77;1.30;;;16.60;79.80;;;;;;5080279;28;20463;-81